sensor_id;sensor_type;location;lat;lon;timestamp;temperature;humidity
19610;DHT22;9952;47.122;-1.638;2024-03-23T00:55:30;8.00;99.90
19610;DHT22;9952;47.122;-1.638;2024-03-23T01:00:12;7.90;99.90
19610;DHT22;9952;47.122;-1.638;2024-03-23T01:04:52;7.90;99.90
19610;DHT22;9952;47.122;-1.638;2024-03-23T01:09:33;7.90;99.90
19610;DHT22;9952;47.122;-1.638;2024-03-23T01:14:14;7.80;99.90
19610;DHT22;9952;47.122;-1.638;2024-03-23T01:18:54;7.80;99.90
19610;DHT22;9952;47.122;-1.638;2024-03-23T01:23:35;7.70;99.90
19610;DHT22;9952;47.122;-1.638;2024-03-23T01:28:15;7.70;99.90
19610;DHT22;9952;47.122;-1.638;2024-03-23T01:32:56;7.70;99.90
19610;DHT22;9952;47.122;-1.638;2024-03-23T01:37:37;7.60;99.90
19610;DHT22;9952;47.122;-1.638;2024-03-23T01:42:17;7.60;99.90
19610;DHT22;9952;47.122;-1.638;2024-03-23T01:46:58;7.50;99.90
19610;DHT22;9952;47.122;-1.638;2024-03-23T01:51:39;7.50;99.90
19610;DHT22;9952;47.122;-1.638;2024-03-23T01:56:20;7.40;99.90
19610;DHT22;9952;47.122;-1.638;2024-03-23T02:01:01;7.40;99.90
19610;DHT22;9952;47.122;-1.638;2024-03-23T02:05:42;7.30;99.90
19610;DHT22;9952;47.122;-1.638;2024-03-23T02:10:22;7.30;99.90
19610;DHT22;9952;47.122;-1.638;2024-03-23T02:15:04;7.30;99.90
19610;DHT22;9952;47.122;-1.638;2024-03-23T02:19:44;7.30;99.90
19610;DHT22;9952;47.122;-1.638;2024-03-23T02:24:29;7.30;99.90
19610;DHT22;9952;47.122;-1.638;2024-03-23T02:29:09;7.30;99.90
19610;DHT22;9952;47.122;-1.638;2024-03-23T02:33:50;7.40;99.90
19610;DHT22;9952;47.122;-1.638;2024-03-23T02:38:30;7.50;99.90
19610;DHT22;9952;47.122;-1.638;2024-03-23T02:43:11;7.50;99.90
19610;DHT22;9952;47.122;-1.638;2024-03-23T02:47:52;7.60;99.90
19610;DHT22;9952;47.122;-1.638;2024-03-23T02:52:33;7.60;99.90
19610;DHT22;9952;47.122;-1.638;2024-03-23T02:57:13;7.50;99.90
19610;DHT22;9952;47.122;-1.638;2024-03-23T03:01:54;7.60;99.90
19610;DHT22;9952;47.122;-1.638;2024-03-23T03:06:35;7.50;99.90
19610;DHT22;9952;47.122;-1.638;2024-03-23T03:11:15;7.50;99.90
19610;DHT22;9952;47.122;-1.638;2024-03-23T03:15:56;7.50;99.90
19610;DHT22;9952;47.122;-1.638;2024-03-23T03:20:40;7.60;99.90
19610;DHT22;9952;47.122;-1.638;2024-03-23T03:25:21;7.60;99.90
19610;DHT22;9952;47.122;-1.638;2024-03-23T03:30:02;7.60;99.90
19610;DHT22;9952;47.122;-1.638;2024-03-23T03:34:42;7.60;99.90
19610;DHT22;9952;47.122;-1.638;2024-03-23T03:39:24;7.60;99.90
19610;DHT22;9952;47.122;-1.638;2024-03-23T03:44:04;7.50;99.90
19610;DHT22;9952;47.122;-1.638;2024-03-23T03:48:45;7.50;99.90
19610;DHT22;9952;47.122;-1.638;2024-03-23T03:53:28;7.50;99.90
19610;DHT22;9952;47.122;-1.638;2024-03-23T03:58:08;7.50;99.90
19610;DHT22;9952;47.122;-1.638;2024-03-23T04:02:49;7.40;99.90
19610;DHT22;9952;47.122;-1.638;2024-03-23T04:07:30;7.40;99.90
19610;DHT22;9952;47.122;-1.638;2024-03-23T04:12:10;7.40;99.90
19610;DHT22;9952;47.122;-1.638;2024-03-23T04:16:51;7.30;99.90
19610;DHT22;9952;47.122;-1.638;2024-03-23T04:21:32;7.30;99.90
19610;DHT22;9952;47.122;-1.638;2024-03-23T04:26:12;7.30;99.90
19610;DHT22;9952;47.122;-1.638;2024-03-23T04:30:53;7.20;99.90
19610;DHT22;9952;47.122;-1.638;2024-03-23T04:35:34;7.20;99.90
19610;DHT22;9952;47.122;-1.638;2024-03-23T04:40:14;7.10;99.90
19610;DHT22;9952;47.122;-1.638;2024-03-23T04:44:55;7.10;99.90
19610;DHT22;9952;47.122;-1.638;2024-03-23T04:49:36;7.10;99.90
19610;DHT22;9952;47.122;-1.638;2024-03-23T04:54:17;7.10;99.90
19610;DHT22;9952;47.122;-1.638;2024-03-23T04:58:57;7.00;99.90
19610;DHT22;9952;47.122;-1.638;2024-03-23T05:03:42;7.00;99.90
19610;DHT22;9952;47.122;-1.638;2024-03-23T05:08:22;7.00;99.90
19610;DHT22;9952;47.122;-1.638;2024-03-23T05:13:03;7.00;99.90
19610;DHT22;9952;47.122;-1.638;2024-03-23T05:17:44;6.90;99.90
19610;DHT22;9952;47.122;-1.638;2024-03-23T05:22:24;6.90;99.90
19610;DHT22;9952;47.122;-1.638;2024-03-23T05:27:05;6.90;99.90
19610;DHT22;9952;47.122;-1.638;2024-03-23T05:31:51;6.90;99.90
19610;DHT22;9952;47.122;-1.638;2024-03-23T05:36:32;6.90;99.90
19610;DHT22;9952;47.122;-1.638;2024-03-23T05:41:13;6.90;99.90
19610;DHT22;9952;47.122;-1.638;2024-03-23T05:45:57;6.80;99.90
19610;DHT22;9952;47.122;-1.638;2024-03-23T05:50:38;6.80;99.90
19610;DHT22;9952;47.122;-1.638;2024-03-23T05:55:19;6.80;99.90
19610;DHT22;9952;47.122;-1.638;2024-03-23T06:00:00;6.80;99.90
19610;DHT22;9952;47.122;-1.638;2024-03-23T06:04:40;6.80;99.90
19610;DHT22;9952;47.122;-1.638;2024-03-23T06:09:21;6.70;99.90
19610;DHT22;9952;47.122;-1.638;2024-03-23T06:14:01;6.70;99.90
19610;DHT22;9952;47.122;-1.638;2024-03-23T06:18:42;6.70;99.90
19610;DHT22;9952;47.122;-1.638;2024-03-23T06:23:23;6.70;99.90
19610;DHT22;9952;47.122;-1.638;2024-03-23T06:28:04;6.70;99.90
19610;DHT22;9952;47.122;-1.638;2024-03-23T06:32:45;6.80;99.90
19610;DHT22;9952;47.122;-1.638;2024-03-23T06:37:26;6.90;99.90
19610;DHT22;9952;47.122;-1.638;2024-03-23T06:42:06;7.00;99.90
19610;DHT22;9952;47.122;-1.638;2024-03-23T06:46:48;7.30;99.90
19610;DHT22;9952;47.122;-1.638;2024-03-23T06:51:29;7.60;99.90
19610;DHT22;9952;47.122;-1.638;2024-03-23T06:56:10;7.90;99.90
19610;DHT22;9952;47.122;-1.638;2024-03-23T07:00:51;8.20;99.90
19610;DHT22;9952;47.122;-1.638;2024-03-23T07:05:31;8.60;99.90
19610;DHT22;9952;47.122;-1.638;2024-03-23T07:10:12;8.80;99.90
19610;DHT22;9952;47.122;-1.638;2024-03-23T07:14:53;9.30;99.90
19610;DHT22;9952;47.122;-1.638;2024-03-23T07:19:33;10.00;99.90
19610;DHT22;9952;47.122;-1.638;2024-03-23T07:24:14;10.70;99.90
19610;DHT22;9952;47.122;-1.638;2024-03-23T07:28:55;11.20;99.90
19610;DHT22;9952;47.122;-1.638;2024-03-23T07:33:46;11.70;99.90
19610;DHT22;9952;47.122;-1.638;2024-03-23T07:38:28;12.40;99.90
19610;DHT22;9952;47.122;-1.638;2024-03-23T07:43:08;12.60;99.90
19610;DHT22;9952;47.122;-1.638;2024-03-23T07:47:49;12.50;99.90
19610;DHT22;9952;47.122;-1.638;2024-03-23T07:52:30;12.70;99.90
19610;DHT22;9952;47.122;-1.638;2024-03-23T07:57:10;12.80;99.90
19610;DHT22;9952;47.122;-1.638;2024-03-23T08:01:51;12.80;99.90
19610;DHT22;9952;47.122;-1.638;2024-03-23T08:06:31;13.40;99.90
19610;DHT22;9952;47.122;-1.638;2024-03-23T08:11:13;13.00;99.90
19610;DHT22;9952;47.122;-1.638;2024-03-23T08:15:58;13.00;99.90
19610;DHT22;9952;47.122;-1.638;2024-03-23T08:20:39;13.10;99.90
19610;DHT22;9952;47.122;-1.638;2024-03-23T08:25:19;13.50;99.90
19610;DHT22;9952;47.122;-1.638;2024-03-23T08:30:00;13.10;99.90
19610;DHT22;9952;47.122;-1.638;2024-03-23T08:34:41;12.90;99.90
19610;DHT22;9952;47.122;-1.638;2024-03-23T08:39:21;12.90;99.90
19610;DHT22;9952;47.122;-1.638;2024-03-23T08:44:02;12.80;99.90
19610;DHT22;9952;47.122;-1.638;2024-03-23T08:48:47;12.50;99.90
19610;DHT22;9952;47.122;-1.638;2024-03-23T08:53:29;12.30;99.90
19610;DHT22;9952;47.122;-1.638;2024-03-23T08:58:10;12.40;99.90
19610;DHT22;9952;47.122;-1.638;2024-03-23T09:02:53;12.70;99.90
19610;DHT22;9952;47.122;-1.638;2024-03-23T09:07:34;12.60;99.90
19610;DHT22;9952;47.122;-1.638;2024-03-23T09:12:14;12.30;99.90
19610;DHT22;9952;47.122;-1.638;2024-03-23T09:16:55;12.70;99.90
19610;DHT22;9952;47.122;-1.638;2024-03-23T09:21:36;12.90;99.90
19610;DHT22;9952;47.122;-1.638;2024-03-23T09:26:16;13.20;99.90
19610;DHT22;9952;47.122;-1.638;2024-03-23T09:31:07;13.30;99.90
19610;DHT22;9952;47.122;-1.638;2024-03-23T09:35:48;13.50;99.90
19610;DHT22;9952;47.122;-1.638;2024-03-23T09:40:29;13.90;99.90
19610;DHT22;9952;47.122;-1.638;2024-03-23T09:45:23;13.80;99.90
19610;DHT22;9952;47.122;-1.638;2024-03-23T09:50:07;13.90;99.90
19610;DHT22;9952;47.122;-1.638;2024-03-23T09:54:48;14.10;99.90
19610;DHT22;9952;47.122;-1.638;2024-03-23T09:59:29;13.90;99.90
19610;DHT22;9952;47.122;-1.638;2024-03-23T10:04:10;13.70;99.90
19610;DHT22;9952;47.122;-1.638;2024-03-23T10:08:52;13.70;99.90
19610;DHT22;9952;47.122;-1.638;2024-03-23T10:13:33;14.00;99.90
19610;DHT22;9952;47.122;-1.638;2024-03-23T10:18:18;14.00;99.90
19610;DHT22;9952;47.122;-1.638;2024-03-23T10:23:00;13.70;99.90
19610;DHT22;9952;47.122;-1.638;2024-03-23T10:27:41;13.30;99.90
19610;DHT22;9952;47.122;-1.638;2024-03-23T10:32:23;13.20;99.90
19610;DHT22;9952;47.122;-1.638;2024-03-23T10:37:05;13.30;99.90
19610;DHT22;9952;47.122;-1.638;2024-03-23T10:41:49;13.80;99.90
19610;DHT22;9952;47.122;-1.638;2024-03-23T10:46:31;14.10;99.90
19610;DHT22;9952;47.122;-1.638;2024-03-23T10:51:12;13.60;99.90
19610;DHT22;9952;47.122;-1.638;2024-03-23T10:55:55;13.50;99.90
19610;DHT22;9952;47.122;-1.638;2024-03-23T11:00:37;13.90;99.90
19610;DHT22;9952;47.122;-1.638;2024-03-23T11:05:27;14.30;99.90
19610;DHT22;9952;47.122;-1.638;2024-03-23T11:10:26;13.90;99.90
19610;DHT22;9952;47.122;-1.638;2024-03-23T11:15:11;14.40;99.90
19610;DHT22;9952;47.122;-1.638;2024-03-23T11:19:56;14.60;99.90
19610;DHT22;9952;47.122;-1.638;2024-03-23T11:24:37;14.70;99.90
19610;DHT22;9952;47.122;-1.638;2024-03-23T11:29:18;14.80;99.90
19610;DHT22;9952;47.122;-1.638;2024-03-23T11:34:05;15.10;99.90
19610;DHT22;9952;47.122;-1.638;2024-03-23T11:38:46;14.50;99.90
19610;DHT22;9952;47.122;-1.638;2024-03-23T11:43:27;14.50;99.90
19610;DHT22;9952;47.122;-1.638;2024-03-23T11:48:09;14.80;99.90
19610;DHT22;9952;47.122;-1.638;2024-03-23T11:52:50;14.60;99.90
19610;DHT22;9952;47.122;-1.638;2024-03-23T11:57:31;14.50;99.90
19610;DHT22;9952;47.122;-1.638;2024-03-23T12:02:12;14.50;99.90
19610;DHT22;9952;47.122;-1.638;2024-03-23T12:07:15;14.50;99.90
19610;DHT22;9952;47.122;-1.638;2024-03-23T12:11:56;15.30;99.90
19610;DHT22;9952;47.122;-1.638;2024-03-23T12:16:36;15.30;99.90
19610;DHT22;9952;47.122;-1.638;2024-03-23T12:21:17;14.90;99.90
19610;DHT22;9952;47.122;-1.638;2024-03-23T12:25:58;14.40;99.90
19610;DHT22;9952;47.122;-1.638;2024-03-23T12:30:39;13.90;99.90
19610;DHT22;9952;47.122;-1.638;2024-03-23T12:35:20;13.10;99.90
19610;DHT22;9952;47.122;-1.638;2024-03-23T12:40:01;12.70;99.90
19610;DHT22;9952;47.122;-1.638;2024-03-23T12:44:42;12.50;99.90
19610;DHT22;9952;47.122;-1.638;2024-03-23T12:49:23;12.80;99.90
19610;DHT22;9952;47.122;-1.638;2024-03-23T12:54:04;13.00;99.90
19610;DHT22;9952;47.122;-1.638;2024-03-23T12:58:44;13.30;99.90
19610;DHT22;9952;47.122;-1.638;2024-03-23T13:03:25;13.90;99.90
19610;DHT22;9952;47.122;-1.638;2024-03-23T13:08:06;14.40;99.90
19610;DHT22;9952;47.122;-1.638;2024-03-23T13:12:46;14.10;99.90
19610;DHT22;9952;47.122;-1.638;2024-03-23T13:17:27;14.30;99.90
19610;DHT22;9952;47.122;-1.638;2024-03-23T13:22:08;14.40;99.90
19610;DHT22;9952;47.122;-1.638;2024-03-23T13:26:52;14.60;99.90
19610;DHT22;9952;47.122;-1.638;2024-03-23T13:31:33;14.80;99.90
19610;DHT22;9952;47.122;-1.638;2024-03-23T13:36:14;14.70;99.90
19610;DHT22;9952;47.122;-1.638;2024-03-23T13:40:59;14.70;99.90
19610;DHT22;9952;47.122;-1.638;2024-03-23T13:45:40;14.50;99.90
19610;DHT22;9952;47.122;-1.638;2024-03-23T13:50:21;14.40;99.90
19610;DHT22;9952;47.122;-1.638;2024-03-23T13:55:02;14.70;99.90
19610;DHT22;9952;47.122;-1.638;2024-03-23T13:59:43;14.60;99.90
19610;DHT22;9952;47.122;-1.638;2024-03-23T14:04:23;13.90;99.90
19610;DHT22;9952;47.122;-1.638;2024-03-23T14:09:08;13.60;99.90
19610;DHT22;9952;47.122;-1.638;2024-03-23T14:13:49;14.00;99.90
19610;DHT22;9952;47.122;-1.638;2024-03-23T14:18:30;14.00;99.90
19610;DHT22;9952;47.122;-1.638;2024-03-23T14:23:10;13.90;99.90
19610;DHT22;9952;47.122;-1.638;2024-03-23T14:27:51;13.60;99.90
19610;DHT22;9952;47.122;-1.638;2024-03-23T14:32:32;13.10;99.90
19610;DHT22;9952;47.122;-1.638;2024-03-23T14:37:14;12.90;99.90
19610;DHT22;9952;47.122;-1.638;2024-03-23T14:41:56;13.20;99.90
19610;DHT22;9952;47.122;-1.638;2024-03-23T14:46:37;13.50;99.90
19610;DHT22;9952;47.122;-1.638;2024-03-23T14:51:17;13.30;99.90
19610;DHT22;9952;47.122;-1.638;2024-03-23T14:56:02;13.20;99.90
19610;DHT22;9952;47.122;-1.638;2024-03-23T15:00:43;13.00;99.90
19610;DHT22;9952;47.122;-1.638;2024-03-23T15:05:23;12.70;99.90
19610;DHT22;9952;47.122;-1.638;2024-03-23T15:10:05;12.20;99.90
19610;DHT22;9952;47.122;-1.638;2024-03-23T15:14:47;12.10;99.90
19610;DHT22;9952;47.122;-1.638;2024-03-23T15:19:27;12.00;99.90
19610;DHT22;9952;47.122;-1.638;2024-03-23T15:24:10;11.90;99.90
19610;DHT22;9952;47.122;-1.638;2024-03-23T15:28:51;12.10;99.90
19610;DHT22;9952;47.122;-1.638;2024-03-23T15:33:38;12.20;99.90
19610;DHT22;9952;47.122;-1.638;2024-03-23T15:38:19;12.30;99.90
19610;DHT22;9952;47.122;-1.638;2024-03-23T15:43:00;12.40;99.90
19610;DHT22;9952;47.122;-1.638;2024-03-23T15:47:41;12.60;99.90
19610;DHT22;9952;47.122;-1.638;2024-03-23T15:52:21;12.80;99.90
19610;DHT22;9952;47.122;-1.638;2024-03-23T15:57:02;12.70;99.90
19610;DHT22;9952;47.122;-1.638;2024-03-23T16:01:43;12.60;99.90
19610;DHT22;9952;47.122;-1.638;2024-03-23T16:06:25;12.80;99.90
19610;DHT22;9952;47.122;-1.638;2024-03-23T16:11:07;12.60;99.90
19610;DHT22;9952;47.122;-1.638;2024-03-23T16:15:55;12.50;99.90
19610;DHT22;9952;47.122;-1.638;2024-03-23T16:20:36;12.20;99.90
19610;DHT22;9952;47.122;-1.638;2024-03-23T16:25:17;12.10;99.90
19610;DHT22;9952;47.122;-1.638;2024-03-23T16:29:57;12.10;99.90
19610;DHT22;9952;47.122;-1.638;2024-03-23T16:34:39;12.00;99.90
19610;DHT22;9952;47.122;-1.638;2024-03-23T16:39:19;11.80;99.90
19610;DHT22;9952;47.122;-1.638;2024-03-23T16:44:00;11.90;99.90
19610;DHT22;9952;47.122;-1.638;2024-03-23T16:48:44;12.00;99.90
19610;DHT22;9952;47.122;-1.638;2024-03-23T16:53:25;12.00;99.90
19610;DHT22;9952;47.122;-1.638;2024-03-23T16:58:06;12.00;99.90
19610;DHT22;9952;47.122;-1.638;2024-03-23T17:02:47;11.90;99.90
19610;DHT22;9952;47.122;-1.638;2024-03-23T17:07:28;11.90;99.90
19610;DHT22;9952;47.122;-1.638;2024-03-23T17:12:08;11.70;99.90
19610;DHT22;9952;47.122;-1.638;2024-03-23T17:16:49;11.50;99.90
19610;DHT22;9952;47.122;-1.638;2024-03-23T17:21:31;11.40;99.90
19610;DHT22;9952;47.122;-1.638;2024-03-23T17:26:14;11.30;99.90
19610;DHT22;9952;47.122;-1.638;2024-03-23T17:30:55;11.30;99.90
19610;DHT22;9952;47.122;-1.638;2024-03-23T17:35:36;11.20;99.90
19610;DHT22;9952;47.122;-1.638;2024-03-23T17:40:17;11.20;99.90
19610;DHT22;9952;47.122;-1.638;2024-03-23T17:44:58;11.10;99.90
19610;DHT22;9952;47.122;-1.638;2024-03-23T17:49:38;11.10;99.90
19610;DHT22;9952;47.122;-1.638;2024-03-23T17:54:19;11.10;99.90
19610;DHT22;9952;47.122;-1.638;2024-03-23T17:59:00;11.00;99.90
19610;DHT22;9952;47.122;-1.638;2024-03-23T18:03:41;11.00;99.90
19610;DHT22;9952;47.122;-1.638;2024-03-23T18:08:21;11.00;99.90
19610;DHT22;9952;47.122;-1.638;2024-03-23T18:13:02;11.00;99.90
19610;DHT22;9952;47.122;-1.638;2024-03-23T18:17:43;10.90;99.90
19610;DHT22;9952;47.122;-1.638;2024-03-23T18:22:23;10.80;99.90
19610;DHT22;9952;47.122;-1.638;2024-03-23T18:27:04;10.70;99.90
19610;DHT22;9952;47.122;-1.638;2024-03-23T18:31:45;10.70;99.90
19610;DHT22;9952;47.122;-1.638;2024-03-23T18:36:26;10.70;99.90
19610;DHT22;9952;47.122;-1.638;2024-03-23T18:41:07;10.70;99.90
19610;DHT22;9952;47.122;-1.638;2024-03-23T18:45:49;10.60;99.90
19610;DHT22;9952;47.122;-1.638;2024-03-23T18:50:29;10.60;99.90
19610;DHT22;9952;47.122;-1.638;2024-03-23T18:55:10;10.50;99.90
19610;DHT22;9952;47.122;-1.638;2024-03-23T18:59:51;10.50;99.90
19610;DHT22;9952;47.122;-1.638;2024-03-23T19:04:31;10.40;99.90
19610;DHT22;9952;47.122;-1.638;2024-03-23T19:09:12;10.40;99.90
19610;DHT22;9952;47.122;-1.638;2024-03-23T19:13:54;10.40;99.90
19610;DHT22;9952;47.122;-1.638;2024-03-23T19:18:35;10.40;99.90
19610;DHT22;9952;47.122;-1.638;2024-03-23T19:23:15;10.30;99.90
19610;DHT22;9952;47.122;-1.638;2024-03-23T19:27:59;10.30;99.90
19610;DHT22;9952;47.122;-1.638;2024-03-23T19:32:42;10.30;99.90
19610;DHT22;9952;47.122;-1.638;2024-03-23T19:37:22;10.30;99.90
19610;DHT22;9952;47.122;-1.638;2024-03-23T19:42:03;10.20;99.90
19610;DHT22;9952;47.122;-1.638;2024-03-23T19:46:44;10.20;99.90
19610;DHT22;9952;47.122;-1.638;2024-03-23T19:51:25;10.20;99.90
19610;DHT22;9952;47.122;-1.638;2024-03-23T19:56:05;10.10;99.90
19610;DHT22;9952;47.122;-1.638;2024-03-23T20:00:49;10.10;99.90
19610;DHT22;9952;47.122;-1.638;2024-03-23T20:05:30;10.00;99.90
19610;DHT22;9952;47.122;-1.638;2024-03-23T20:10:11;10.00;99.90
19610;DHT22;9952;47.122;-1.638;2024-03-23T20:14:52;10.00;99.90
19610;DHT22;9952;47.122;-1.638;2024-03-23T20:19:34;10.00;99.90
19610;DHT22;9952;47.122;-1.638;2024-03-23T20:24:15;10.10;99.90
19610;DHT22;9952;47.122;-1.638;2024-03-23T20:28:55;10.10;99.90
19610;DHT22;9952;47.122;-1.638;2024-03-23T20:33:36;10.10;99.90
19610;DHT22;9952;47.122;-1.638;2024-03-23T20:38:20;10.10;99.90
19610;DHT22;9952;47.122;-1.638;2024-03-23T20:43:07;10.00;99.90
19610;DHT22;9952;47.122;-1.638;2024-03-23T20:47:49;10.00;99.90
19610;DHT22;9952;47.122;-1.638;2024-03-23T20:52:30;10.00;99.90
19610;DHT22;9952;47.122;-1.638;2024-03-23T20:57:10;10.00;99.90
19610;DHT22;9952;47.122;-1.638;2024-03-23T21:01:51;9.90;99.90
19610;DHT22;9952;47.122;-1.638;2024-03-23T21:06:32;9.90;99.90
19610;DHT22;9952;47.122;-1.638;2024-03-23T21:11:13;9.80;99.90
19610;DHT22;9952;47.122;-1.638;2024-03-23T21:15:54;9.80;99.90
19610;DHT22;9952;47.122;-1.638;2024-03-23T21:20:42;9.70;99.90
19610;DHT22;9952;47.122;-1.638;2024-03-23T21:25:23;9.70;99.90
19610;DHT22;9952;47.122;-1.638;2024-03-23T21:30:04;9.80;99.90
19610;DHT22;9952;47.122;-1.638;2024-03-23T21:34:45;9.70;99.90
19610;DHT22;9952;47.122;-1.638;2024-03-23T21:39:26;9.70;99.90
19610;DHT22;9952;47.122;-1.638;2024-03-23T21:44:06;9.60;99.90
19610;DHT22;9952;47.122;-1.638;2024-03-23T21:48:48;9.60;99.90
19610;DHT22;9952;47.122;-1.638;2024-03-23T21:53:29;9.50;99.90
19610;DHT22;9952;47.122;-1.638;2024-03-23T21:58:10;9.50;99.90
19610;DHT22;9952;47.122;-1.638;2024-03-23T22:02:51;9.40;99.90
19610;DHT22;9952;47.122;-1.638;2024-03-23T22:07:31;9.40;99.90
19610;DHT22;9952;47.122;-1.638;2024-03-23T22:12:12;9.30;99.90
19610;DHT22;9952;47.122;-1.638;2024-03-23T22:16:53;9.20;99.90
19610;DHT22;9952;47.122;-1.638;2024-03-23T22:21:34;9.20;99.90
19610;DHT22;9952;47.122;-1.638;2024-03-23T22:26:14;9.10;99.90
19610;DHT22;9952;47.122;-1.638;2024-03-23T22:30:56;9.10;99.90
19610;DHT22;9952;47.122;-1.638;2024-03-23T22:35:37;9.00;99.90
19610;DHT22;9952;47.122;-1.638;2024-03-23T22:40:17;9.00;99.90
19610;DHT22;9952;47.122;-1.638;2024-03-23T22:44:58;8.90;99.90
19610;DHT22;9952;47.122;-1.638;2024-03-23T22:49:39;8.90;99.90
19610;DHT22;9952;47.122;-1.638;2024-03-23T22:54:20;8.80;99.90
19610;DHT22;9952;47.122;-1.638;2024-03-23T22:59:01;8.80;99.90
19610;DHT22;9952;47.122;-1.638;2024-03-23T23:03:41;8.80;99.90
19610;DHT22;9952;47.122;-1.638;2024-03-23T23:08:22;8.80;99.90
19610;DHT22;9952;47.122;-1.638;2024-03-23T23:13:04;8.80;99.90
19610;DHT22;9952;47.122;-1.638;2024-03-23T23:17:47;8.80;99.90
19610;DHT22;9952;47.122;-1.638;2024-03-23T23:22:28;8.80;99.90
19610;DHT22;9952;47.122;-1.638;2024-03-23T23:27:09;8.80;99.90
19610;DHT22;9952;47.122;-1.638;2024-03-23T23:31:50;8.70;99.90
19610;DHT22;9952;47.122;-1.638;2024-03-23T23:36:31;8.70;99.90
19610;DHT22;9952;47.122;-1.638;2024-03-23T23:41:12;8.60;99.90
19610;DHT22;9952;47.122;-1.638;2024-03-23T23:45:53;8.60;99.90
19610;DHT22;9952;47.122;-1.638;2024-03-23T23:50:35;8.60;99.90
19610;DHT22;9952;47.122;-1.638;2024-03-23T23:55:16;8.50;99.90
19610;DHT22;9952;47.122;-1.638;2024-03-23T23:59:56;8.50;99.90
